الصفحة الرئيسية
METAR-TAF:

METAR-TAF

مطار :

Hagi, اليابان

دائرة عرض: 34-40N, خط طول: 131-48E, ارتفاع: 54 متر

مراقبة الطقس الحالي

تاريخ ووقت الإصدار 3ساعات و 54 دقيقة قبل الساعة 10:00UTC
ريح 8 عقدة من الغرب
درجة الحرارة 25°درجة مئوية
الرطوبة 83%
ضغط 1006 hPa
الرؤية 10 كم أو أكثر
غيوم قليلة على ارتفاع 1000 قدم
غيوم متفرقة على ارتفاع 3000 قدم
غيوم مفككة على ارتفاع 4500 قدم

METAR: RJOW 241000Z 28008KT 9999 FEW010 SCT030 BKN045 25/22 Q1006

زمن: 22:54 (13:54 UTC)


TAF: مفقودة

أرصاد الطقس والتوقعات من أكثر من 4000 مطار (تقارير الطقس للمطار METAR والتنبؤ بالطقس بالمطارTAF).

المحطات المتاحة هي النقط الصفراء والحمراء على الخريطة.

حرك المؤشر فوق النقطة لمعرفة اسم المحطة.

ثم انقر لمعرفة أرصاد وتوقعات الطقس.

لتغيير الخارطة: اضغط على الأزرار الخضراء مع رمز الصليب الأسود للتكبير. على الزر الأخضر مع شرطة للتصغير، أو على الأسهم الخضراء للخرائط المجاورة.


METAR-TAF: